Nordic Stockholm — 2DKI2 — position and weather

sailwx.info

Track history (hours):
 
Tides and Currents Weather Stations Pressure Air Temp Water Temp Dewpoint Dewpoint Depression Visibility Wind Speed Wind Dir Waves Ship Positions

Nordic Stockholm

Last reported at 2016-May-20 02:32 UTC. Time now 2016-May-28 20:43 UTC.
Position N 28°21' W 013°28'.
Warning: this ship's position is 8 days out of date.

Length 180 m; draft 10.1 m.

Type: Cargo ship. MMSI: 235079725.

Date/timePositionNaut miles runAvg speedWind from/ knotsBaromVisibWave heightAir tempDewpointWater temp
2016-May-20 02:32N 28°21' W 013°28'60913.9
2016-May-18 06:33N 35°58' W 005°32'1110.6
2016-May-18 05:33N 36°01' W 005°20'19213.5
2016-May-17 15:22N 36°31' W 001°25'3114.6
2016-May-17 13:14N 36°36' W 000°47'1314.6
2016-May-17 12:22N 36°38' W 000°31'1814.3
2016-May-17 11:08N 36°44' W 000°10'914.5
2016-May-17 10:32N 36°46' E 000°00'1414.0
2016-May-17 09:33N 36°48' E 000°17'1414.5
2016-May-17 08:33N 36°52' E 000°35'1514.6
2016-May-17 07:33N 36°55' E 000°53'1414.5
2016-May-17 06:33N 36°59' E 001°10'1413.9
2016-May-17 05:33N 37°03' E 001°27'1613.9
2016-May-17 04:24N 37°07' E 001°46'1214.0
2016-May-17 03:30N 37°11' E 002°01'1513.8
2016-May-17 02:26N 37°14' E 002°19'1314.2
2016-May-17 01:33N 37°17' E 002°34'1414.2
2016-May-17 00:33N 37°19' E 002°52'39513.6
2016-May-15 19:31N 37°28' E 011°09'1312.8
2016-May-15 18:29N 37°21' E 011°24'11713.1
2016-May-15 09:32N 36°41' E 013°41'1512.7
2016-May-15 08:20N 36°37' E 013°60'1012.7
2016-May-15 07:32N 36°35' E 014°12'1312.8
2016-May-15 06:33N 36°30' E 014°27'1512.8
2016-May-15 05:25N 36°30' E 014°45'42913.0
2016-May-13 20:28N 36°46' E 023°39'1513.4
2016-May-13 19:23N 36°57' E 023°50'1113.6
2016-May-13 18:33N 37°06' E 023°58'1413.7
2016-May-13 17:33N 37°17' E 024°09'2913.7
2016-May-13 15:27N 37°41' E 024°29'1213.5
2016-May-13 14:33N 37°53' E 024°33'26411.4
2016-May-12 15:25N 40°50' E 028°46'11 1.9
2016-May-12 09:32N 40°58' E 028°57'273 8.0
2016-May-10 23:33N 43°18' E 034°14'1412.9
2016-May-10 22:28N 43°23' E 034°31'1213.3
2016-May-10 21:33N 43°29' E 034°46'2813.6
2016-May-10 19:30N 43°42' E 035°20'1313.7
2016-May-10 18:33N 43°48' E 035°37'1313.5
2016-May-10 17:33N 43°53' E 035°53'5413.6
2016-May-10 13:33N 44°18' E 037°01'1313.5
2016-May-10 12:33N 44°24' E 037°18'1313.2
2016-May-10 11:33N 44°31' E 037°34'1313.0
2016-May-10 10:33N 44°38' E 037°49'6 5.9
2016-May-10 09:33N 44°44' E 037°48'0 0.0
2016-May-10 08:31N 44°44' E 037°48'0 0.0
2016-May-10 07:31N 44°44' E 037°48'0 0.0
2016-May-10 06:31N 44°44' E 037°48'0 0.0
2016-May-10 05:31N 44°44' E 037°48'0 0.0
2016-May-10 04:31N 44°44' E 037°48'0 0.0
2016-May-10 03:31N 44°44' E 037°48'  
Track history (hours):
 
Tides and Currents Weather Stations Pressure Air Temp Water Temp Dewpoint Dewpoint Depression Visibility Wind Speed Wind Dir Waves Ship Positions

Nordic Stockholm

Last reported at 2016-May-20 02:32 UTC. Time now 2016-May-28 20:43 UTC.
Position N 28°21' W 013°28'.
Warning: this ship's position is 8 days out of date.

Length 180 m; draft 10.1 m.

Type: Cargo ship. MMSI: 235079725.

Date/timePositionNaut miles runAvg speedWind from/ knotsBaromVisibWave heightAir tempDewpointWater temp
2016-May-20 02:32N 28°21' W 013°28'60913.9
2016-May-18 06:33N 35°58' W 005°32'1110.6
2016-May-18 05:33N 36°01' W 005°20'19213.5
2016-May-17 15:22N 36°31' W 001°25'3114.6
2016-May-17 13:14N 36°36' W 000°47'1314.6
2016-May-17 12:22N 36°38' W 000°31'1814.3
2016-May-17 11:08N 36°44' W 000°10'914.5
2016-May-17 10:32N 36°46' E 000°00'1414.0
2016-May-17 09:33N 36°48' E 000°17'1414.5
2016-May-17 08:33N 36°52' E 000°35'1514.6
2016-May-17 07:33N 36°55' E 000°53'1414.5
2016-May-17 06:33N 36°59' E 001°10'1413.9
2016-May-17 05:33N 37°03' E 001°27'1613.9
2016-May-17 04:24N 37°07' E 001°46'1214.0
2016-May-17 03:30N 37°11' E 002°01'1513.8
2016-May-17 02:26N 37°14' E 002°19'1314.2
2016-May-17 01:33N 37°17' E 002°34'1414.2
2016-May-17 00:33N 37°19' E 002°52'39513.6
2016-May-15 19:31N 37°28' E 011°09'1312.8
2016-May-15 18:29N 37°21' E 011°24'11713.1
2016-May-15 09:32N 36°41' E 013°41'1512.7
2016-May-15 08:20N 36°37' E 013°60'1012.7
2016-May-15 07:32N 36°35' E 014°12'1312.8
2016-May-15 06:33N 36°30' E 014°27'1512.8
2016-May-15 05:25N 36°30' E 014°45'42913.0
2016-May-13 20:28N 36°46' E 023°39'1513.4
2016-May-13 19:23N 36°57' E 023°50'1113.6
2016-May-13 18:33N 37°06' E 023°58'1413.7
2016-May-13 17:33N 37°17' E 024°09'2913.7
2016-May-13 15:27N 37°41' E 024°29'1213.5
2016-May-13 14:33N 37°53' E 024°33'26411.4
2016-May-12 15:25N 40°50' E 028°46'11 1.9
2016-May-12 09:32N 40°58' E 028°57'273 8.0
2016-May-10 23:33N 43°18' E 034°14'1412.9
2016-May-10 22:28N 43°23' E 034°31'1213.3
2016-May-10 21:33N 43°29' E 034°46'2813.6
2016-May-10 19:30N 43°42' E 035°20'1313.7
2016-May-10 18:33N 43°48' E 035°37'1313.5
2016-May-10 17:33N 43°53' E 035°53'5413.6
2016-May-10 13:33N 44°18' E 037°01'1313.5
2016-May-10 12:33N 44°24' E 037°18'1313.2
2016-May-10 11:33N 44°31' E 037°34'1313.0
2016-May-10 10:33N 44°38' E 037°49'6 5.9
2016-May-10 09:33N 44°44' E 037°48'0 0.0
2016-May-10 08:31N 44°44' E 037°48'0 0.0
2016-May-10 07:31N 44°44' E 037°48'0 0.0
2016-May-10 06:31N 44°44' E 037°48'0 0.0
2016-May-10 05:31N 44°44' E 037°48'0 0.0
2016-May-10 04:31N 44°44' E 037°48'0 0.0
2016-May-10 03:31N 44°44' E 037°48'  

Dump ship's entire track history